createdAt,value
2018-03-26T00:02:48.338Z," 8.01"
2018-03-26T00:07:43.225Z," 7.83"
2018-03-26T00:12:38.990Z," 7.93"
2018-03-26T00:17:39.203Z," 7.82"
2018-03-26T00:22:33.908Z," 7.75"
2018-03-26T00:27:30.648Z," 7.80"
2018-03-26T00:32:25.998Z," 7.76"
2018-03-26T00:37:23.106Z," 7.70"
2018-03-26T00:42:18.557Z," 7.57"
2018-03-26T00:47:14.090Z," 7.51"
2018-03-26T00:52:14.984Z," 7.48"
2018-03-26T00:57:10.255Z," 7.47"
2018-03-26T01:02:06.064Z," 7.42"
2018-03-26T01:07:05.656Z," 7.38"
2018-03-26T01:12:01.557Z," 7.38"
2018-03-26T01:17:00.913Z," 7.36"
2018-03-26T01:21:56.454Z," 7.18"
2018-03-26T01:26:52.184Z," 7.17"
2018-03-26T01:31:48.033Z," 7.15"
2018-03-26T01:36:43.882Z," 7.13"
2018-03-26T01:41:39.710Z," 7.06"
2018-03-26T01:46:39.506Z," 7.18"
2018-03-26T01:51:34.436Z," 7.07"
2018-03-26T01:56:34.123Z," 7.00"
2018-03-26T02:01:32.935Z," 6.99"
2018-03-26T02:06:32.564Z," 7.03"
2018-03-26T02:11:27.966Z," 7.00"
2018-03-26T02:16:28.305Z," 7.02"
2018-03-26T02:21:24.894Z," 6.95"
2018-03-26T02:26:22.529Z," 6.88"
2018-03-26T02:31:21.730Z," 6.92"
2018-03-26T02:36:21.209Z," 6.82"
2018-03-26T02:41:17.014Z," 6.70"
2018-03-26T02:46:16.240Z," 6.67"
2018-03-26T02:51:12.106Z," 6.72"
2018-03-26T03:01:14.785Z," 6.48"
2018-03-26T03:06:10.464Z," 6.67"
2018-03-26T03:11:06.885Z," 6.52"
2018-03-26T03:16:07.191Z," 6.52"
2018-03-26T03:21:02.055Z," 6.54"
2018-03-26T03:25:57.493Z," 6.45"
2018-03-26T03:30:57.137Z," 6.36"
2018-03-26T03:35:51.966Z," 6.35"
2018-03-26T03:40:47.737Z," 6.41"
2018-03-26T03:45:43.488Z," 6.35"
2018-03-26T03:50:43.176Z," 6.30"
2018-03-26T03:55:41.985Z," 6.22"
2018-03-26T04:00:37.876Z," 6.12"
2018-03-26T04:05:33.125Z," 6.17"
2018-03-26T04:10:32.731Z," 6.17"
2018-03-26T04:15:27.455Z," 6.16"
2018-03-26T04:20:23.266Z," 6.14"
2018-03-26T04:25:22.890Z," 6.08"
2018-03-26T04:30:17.669Z," 5.99"
2018-03-26T04:35:18.708Z," 6.08"
2018-03-26T04:40:13.714Z," 6.05"
2018-03-26T04:45:09.440Z," 5.98"
2018-03-26T04:50:06.288Z," 6.02"
2018-03-26T04:55:02.844Z," 6.02"
2018-03-26T04:59:58.753Z," 5.93"
2018-03-26T05:04:54.037Z," 5.79"
2018-03-26T05:09:49.680Z," 5.71"
2018-03-26T05:14:45.553Z," 5.79"
2018-03-26T05:19:45.332Z," 5.75"
2018-03-26T05:24:45.336Z," 5.75"
2018-03-26T05:29:39.908Z," 5.86"
2018-03-26T05:34:40.469Z," 5.93"
2018-03-26T05:39:36.353Z," 5.84"
2018-03-26T05:44:31.697Z," 5.84"
2018-03-26T05:49:27.966Z," 5.93"
2018-03-26T05:54:28.692Z," 6.05"
2018-03-26T05:59:27.175Z," 5.98"
2018-03-26T06:04:25.742Z," 5.90"
2018-03-26T06:09:24.491Z," 5.89"
2018-03-26T06:14:20.495Z," 5.66"
2018-03-26T06:19:15.910Z," 5.69"
2018-03-26T06:24:16.569Z," 5.69"
2018-03-26T06:29:15.302Z," 5.46"
2018-03-26T06:34:10.429Z," 5.69"
2018-03-26T06:39:10.112Z," 5.72"
2018-03-26T06:44:05.927Z," 5.83"
2018-03-26T06:49:05.556Z," 5.79"
2018-03-26T06:54:00.432Z," 6.04"
2018-03-26T06:59:00.472Z," 6.19"
2018-03-26T07:03:59.591Z," 6.16"
2018-03-26T07:08:54.912Z," 6.38"
2018-03-26T07:13:52.113Z," 6.48"
2018-03-26T07:18:47.407Z," 6.35"
2018-03-26T07:23:44.505Z," 6.24"
2018-03-26T07:28:39.966Z," 6.12"
2018-03-26T07:33:37.049Z," 6.77"
2018-03-26T07:38:36.804Z," 6.99"
2018-03-26T07:43:31.747Z," 7.10"
2018-03-26T07:48:28.789Z," 7.35"
2018-03-26T07:53:24.643Z," 7.69"
2018-03-26T07:58:25.931Z," 7.58"
2018-03-26T08:03:25.222Z," 8.19"
2018-03-26T08:08:20.422Z," 8.28"
2018-03-26T08:13:16.424Z," 7.90"
2018-03-26T08:18:12.122Z," 7.15"
2018-03-26T08:23:07.966Z," 7.67"
2018-03-26T08:28:08.767Z," 7.75"
2018-03-26T08:33:07.106Z," 7.15"
2018-03-26T08:38:06.686Z," 7.39"
2018-03-26T08:43:05.144Z," 7.57"
2018-03-26T08:47:59.778Z," 6.70"
2018-03-26T08:52:58.985Z," 6.96"
2018-03-26T08:57:53.845Z," 6.67"
2018-03-26T09:02:53.168Z," 6.42"
2018-03-26T09:07:49.054Z," 6.54"
2018-03-26T09:12:48.292Z," 6.64"
2018-03-26T09:17:43.961Z," 7.02"
2018-03-26T09:22:40.968Z," 7.17"
2018-03-26T09:27:36.653Z," 7.07"
2018-03-26T09:32:36.614Z," 7.05"
2018-03-26T09:37:31.534Z," 7.29"
2018-03-26T09:42:31.594Z," 7.91"
2018-03-26T09:47:31.501Z," 7.83"
2018-03-26T09:52:26.483Z," 8.33"
2018-03-26T09:57:27.574Z," 8.70"
2018-03-26T10:02:23.024Z," 8.81"
2018-03-26T10:07:22.970Z," 9.26"
2018-03-26T10:12:19.225Z," 8.92"
2018-03-26T10:17:19.053Z," 9.34"
2018-03-26T10:22:19.713Z," 9.46"
2018-03-26T10:27:15.472Z," 9.56"
2018-03-26T10:32:15.384Z," 9.97"
2018-03-26T10:37:11.186Z,10.16
2018-03-26T10:42:07.097Z,10.35
2018-03-26T10:47:06.776Z," 9.64"
2018-03-26T10:52:02.396Z,10.26
2018-03-26T10:57:02.448Z,10.59
2018-03-26T11:01:58.239Z,11.14
2018-03-26T11:06:58.171Z,10.99
2018-03-26T11:11:53.601Z,10.90
2018-03-26T11:16:49.543Z,10.86
2018-03-26T11:21:45.910Z,10.96
2018-03-26T11:26:42.664Z,11.83
2018-03-26T11:31:44.443Z,12.03
2018-03-26T11:36:39.472Z,12.07
2018-03-26T11:41:35.425Z,12.72
2018-03-26T11:46:35.443Z,12.87
2018-03-26T11:51:34.992Z,13.27
2018-03-26T11:56:35.412Z,13.09
2018-03-26T12:01:34.708Z,13.12
2018-03-26T12:06:30.377Z,13.03
2018-03-26T12:11:26.196Z,13.16
2018-03-26T12:16:21.952Z,13.11
2018-03-26T12:21:17.900Z,13.28
2018-03-26T12:26:13.612Z,12.24
2018-03-26T12:31:13.790Z,12.47
2018-03-26T12:36:08.103Z,12.85
2018-03-26T12:41:07.823Z,12.54
2018-03-26T12:46:06.373Z,12.17
2018-03-26T12:51:01.297Z,12.24
2018-03-26T12:55:56.141Z,11.52
2018-03-26T13:00:51.188Z,11.55
2018-03-26T13:05:48.259Z,11.44
2018-03-26T13:10:48.931Z,11.44
2018-03-26T13:15:43.419Z,11.94
2018-03-26T13:20:39.535Z,11.55
2018-03-26T13:25:35.087Z,11.60
2018-03-26T13:30:31.970Z,12.07
2018-03-26T13:35:28.471Z,12.36
2018-03-26T13:40:25.341Z,11.55
2018-03-26T13:45:25.397Z,11.48
2018-03-26T13:50:21.473Z,11.51
2018-03-26T13:55:17.002Z,11.83
2018-03-26T14:00:17.280Z,11.35
2018-03-26T14:05:11.946Z,11.48
2018-03-26T14:10:12.600Z,11.18
2018-03-26T14:15:11.209Z,10.79
2018-03-26T14:20:05.865Z,11.15
2018-03-26T14:25:06.462Z,11.48
2018-03-26T14:30:02.848Z,11.18
2018-03-26T14:35:04.287Z,11.45
2018-03-26T14:40:04.140Z,10.90
2018-03-26T14:44:59.653Z,11.05
2018-03-26T14:49:55.156Z,10.87
2018-03-26T14:54:55.534Z,10.26
2018-03-26T14:59:54.896Z,10.22
2018-03-26T15:04:52.930Z,10.10
2018-03-26T15:09:51.511Z," 9.84"
2018-03-26T15:14:50.295Z," 9.91"
2018-03-26T15:19:50.129Z,10.07
2018-03-26T15:24:49.500Z," 9.69"
2018-03-26T15:29:47.903Z," 9.74"
2018-03-26T15:34:42.816Z," 9.79"
2018-03-26T15:39:42.313Z," 9.89"
2018-03-26T15:44:37.761Z," 9.91"
2018-03-26T15:49:38.446Z," 9.87"
2018-03-26T15:54:33.434Z," 9.95"
2018-03-26T15:59:28.775Z," 9.77"
2018-03-26T16:04:24.392Z," 9.54"
2018-03-26T16:09:20.393Z," 9.43"
2018-03-26T16:14:15.905Z," 9.08"
2018-03-26T16:19:11.446Z," 8.91"
2018-03-26T16:24:07.381Z," 8.97"
2018-03-26T16:29:03.181Z," 8.94"
2018-03-26T16:33:58.876Z," 8.92"
2018-03-26T16:38:58.907Z," 8.67"
2018-03-26T16:43:53.651Z," 8.58"
2018-03-26T16:48:51.772Z," 8.52"
2018-03-26T16:53:46.533Z," 8.48"
2018-03-26T16:58:42.394Z," 8.52"
2018-03-26T17:03:38.142Z," 8.31"
2018-03-26T17:08:35.122Z," 8.24"
2018-03-26T17:13:34.457Z," 8.20"
2018-03-26T17:18:29.679Z," 8.28"
2018-03-26T17:23:29.363Z," 8.31"
2018-03-26T17:28:24.094Z," 8.20"
2018-03-26T17:33:20.780Z," 8.10"
2018-03-26T17:38:17.004Z," 7.90"
2018-03-26T17:43:12.968Z," 8.08"
2018-03-26T17:48:08.405Z," 7.83"
2018-03-26T17:53:04.001Z," 7.69"
2018-03-26T17:58:01.246Z," 7.60"
2018-03-26T18:02:56.704Z," 7.61"
2018-03-26T18:07:53.333Z," 7.75"
2018-03-26T18:12:49.092Z," 7.76"
2018-03-26T18:17:46.147Z," 7.76"
2018-03-26T18:22:46.351Z," 7.63"
2018-03-26T18:27:40.892Z," 7.50"
2018-03-26T18:32:40.485Z," 7.38"
2018-03-26T18:37:39.291Z," 7.25"
2018-03-26T18:42:37.987Z," 7.21"
2018-03-26T18:47:33.222Z," 7.20"
2018-03-26T18:52:29.847Z," 7.14"
2018-03-26T18:57:25.388Z," 7.36"
2018-03-26T19:02:26.410Z," 7.15"
2018-03-26T19:07:22.849Z," 7.13"
2018-03-26T19:12:19.046Z," 7.06"
2018-03-26T19:17:18.241Z," 6.85"
2018-03-26T19:22:16.831Z," 6.72"
2018-03-26T19:27:16.298Z," 6.84"
2018-03-26T19:32:11.135Z," 6.99"
2018-03-26T19:37:10.983Z," 6.82"
2018-03-26T19:42:05.575Z," 6.85"
2018-03-26T19:47:02.364Z," 6.70"
2018-03-26T19:51:57.764Z," 6.63"
2018-03-26T19:56:53.363Z," 6.81"
2018-03-26T20:01:53.224Z," 6.74"
2018-03-26T20:06:48.657Z," 6.51"
2018-03-26T20:11:44.051Z," 6.57"
2018-03-26T20:16:44.691Z," 6.56"
2018-03-26T20:21:43.228Z," 6.67"
2018-03-26T20:26:41.899Z," 6.52"
2018-03-26T20:31:40.522Z," 7.03"
2018-03-26T20:36:40.383Z," 6.84"
2018-03-26T20:41:36.144Z," 7.18"
2018-03-26T20:46:36.394Z," 7.38"
2018-03-26T20:51:31.145Z," 7.51"
2018-03-26T20:56:31.826Z," 7.50"
2018-03-26T21:01:30.481Z," 7.38"
2018-03-26T21:06:25.365Z," 7.31"
2018-03-26T21:11:20.960Z," 7.17"
2018-03-26T21:16:20.372Z," 7.25"
2018-03-26T21:21:16.065Z," 7.11"
2018-03-26T21:26:15.434Z," 7.20"
2018-03-26T21:31:10.704Z," 7.18"
2018-03-26T21:36:07.434Z," 7.32"
2018-03-26T21:41:02.907Z," 7.29"
2018-03-26T21:46:03.825Z," 7.31"
2018-03-26T21:51:02.349Z," 7.18"
2018-03-26T21:56:01.153Z," 7.17"
2018-03-26T22:00:59.788Z," 7.03"
2018-03-26T22:05:58.526Z," 7.03"
2018-03-26T22:10:54.006Z," 6.99"
2018-03-26T22:15:49.227Z," 6.99"
2018-03-26T22:20:44.967Z," 6.87"
2018-03-26T22:25:41.786Z," 7.10"
2018-03-26T22:30:40.932Z," 6.64"
2018-03-26T22:35:35.599Z," 6.79"
2018-03-26T22:40:31.081Z," 6.85"
2018-03-26T22:45:30.749Z," 6.78"
2018-03-26T22:50:25.706Z," 6.84"
2018-03-26T22:55:21.225Z," 6.84"
2018-03-26T23:00:21.326Z," 6.77"
2018-03-26T23:05:20.111Z," 6.85"
2018-03-26T23:10:14.741Z," 6.92"
2018-03-26T23:15:10.935Z," 6.77"
2018-03-26T23:20:06.473Z," 6.97"
2018-03-26T23:25:02.110Z," 6.84"
2018-03-26T23:29:58.968Z," 6.63"
2018-03-26T23:34:54.368Z," 6.66"
2018-03-26T23:39:51.167Z," 6.45"
2018-03-26T23:44:47.669Z," 6.46"
2018-03-26T23:49:43.147Z," 6.60"
2018-03-26T23:54:42.802Z," 6.51"
2018-03-26T23:59:41.819Z," 6.45"
